Time;durP1;ratioP1;P1;durP2;ratioP2;P2;SDS_P1;SDS_P2;PMS_P1;PMS_P2;Temp;Humidity;BMP_temperature;BMP_pressure;BME280_temperature;BME280_humidity;BME280_pressure;Samples;Min_cycle;Max_cycle;Signal;HPM_P1;HPM_P2
2021/12/30 00:00:41;;;;;;;18.48;3.95;;;8.00;99.90;;;;;;5082744;28;20041;-86
2021/12/30 00:03:07;;;;;;;18.50;3.67;;;7.90;99.90;;;;;;5083377;28;20040;-86
2021/12/30 00:05:34;;;;;;;19.67;3.95;;;8.00;99.90;;;;;;5082819;28;20041;-86
2021/12/30 00:08:00;;;;;;;24.70;4.45;;;8.00;99.90;;;;;;5083139;28;20091;-86
2021/12/30 00:10:28;;;;;;;28.30;4.50;;;8.00;99.90;;;;;;5065076;28;20592;-86
2021/12/30 00:12:54;;;;;;;31.33;4.03;;;8.00;99.90;;;;;;5082910;28;20135;-86
2021/12/30 00:15:21;;;;;;;29.83;4.32;;;8.00;99.90;;;;;;5082328;28;20045;-86
2021/12/30 00:17:47;;;;;;;29.83;4.78;;;8.00;99.90;;;;;;5082606;28;20049;-86
2021/12/30 00:20:13;;;;;;;28.23;4.88;;;8.00;99.90;;;;;;5049559;28;20067;-86
2021/12/30 00:22:41;;;;;;;34.35;4.55;;;8.00;99.90;;;;;;5083377;28;20613;-86
2021/12/30 00:25:09;;;;;;;37.65;5.38;;;8.00;99.90;;;;;;5083198;28;20067;-86
2021/12/30 00:27:34;;;;;;;36.75;5.05;;;8.00;99.90;;;;;;5082302;28;20118;-86
2021/12/30 00:30:05;;;;;;;33.47;4.72;;;8.00;99.90;;;;;;5066139;28;20049;-86
2021/12/30 00:32:31;;;;;;;34.30;5.40;;;7.90;99.90;;;;;;5081842;28;20041;-86
2021/12/30 00:34:56;;;;;;;31.73;4.80;;;8.00;99.90;;;;;;5049311;28;20485;-87
2021/12/30 00:37:22;;;;;;;42.63;5.73;;;7.90;99.90;;;;;;5082805;28;20283;-86
2021/12/30 00:39:48;;;;;;;31.67;5.40;;;7.90;99.90;;;;;;5082408;28;20292;-86
2021/12/30 00:42:14;;;;;;;42.70;5.80;;;8.00;99.90;;;;;;5065969;28;20045;-86
2021/12/30 00:44:39;;;;;;;33.38;5.50;;;8.00;99.90;;;;;;5081632;28;20458;-86
2021/12/30 00:47:05;;;;;;;40.58;5.10;;;7.90;99.90;;;;;;5082737;28;20037;-86
2021/12/30 00:49:31;;;;;;;36.58;5.10;;;7.90;99.90;;;;;;5082402;28;20033;-86
2021/12/30 00:51:57;;;;;;;38.75;5.45;;;7.90;99.90;;;;;;5083222;28;20041;-87
2021/12/30 00:54:23;;;;;;;44.78;5.25;;;7.90;99.90;;;;;;5082817;28;20087;-86
2021/12/30 00:56:49;;;;;;;;;;;7.80;99.90;;;;;;5065883;28;20433;-86
2021/12/30 00:59:15;;;;;;;36.20;5.30;;;7.80;99.90;;;;;;5082787;28;19919;-86
2021/12/30 01:01:40;;;;;;;43.08;5.82;;;7.80;99.90;;;;;;5082276;28;20448;-86
2021/12/30 01:04:06;;;;;;;35.92;5.57;;;7.80;99.90;;;;;;5082909;28;20447;-87
2021/12/30 01:06:32;;;;;;;33.63;5.32;;;7.80;99.90;;;;;;5082165;28;20037;-86
2021/12/30 01:08:58;;;;;;;42.22;5.90;;;7.70;99.90;;;;;;5066077;28;20044;-86
2021/12/30 01:11:25;;;;;;;39.15;5.22;;;7.70;99.90;;;;;;5082160;28;20075;-86
2021/12/30 01:14:36;;;;;;;42.33;5.57;;;7.70;99.90;;;;;;5082419;28;20037;-86
2021/12/30 01:16:46;;;;;;;33.70;6.00;;;7.70;99.90;;;;;;5045392;28;20045;-86
2021/12/30 01:19:42;;;;;;;40.53;5.85;;;7.70;99.90;;;;;;5082295;28;20138;-86
2021/12/30 01:22:08;;;;;;;35.20;5.55;;;7.70;99.90;;;;;;5036413;28;20046;-86
2021/12/30 01:24:34;;;;;;;47.17;5.97;;;7.60;99.90;;;;;;5081636;28;20116;-86
2021/12/30 01:27:00;;;;;;;42.00;5.53;;;7.70;99.90;;;;;;5065149;28;20616;-86
2021/12/30 01:29:29;;;;;;;48.17;5.65;;;7.70;99.90;;;;;;5081707;28;20124;-87
2021/12/30 01:31:55;;;;;;;38.72;5.40;;;7.70;99.90;;;;;;5065261;28;20040;-86
2021/12/30 01:34:21;;;;;;;44.33;5.82;;;7.70;99.90;;;;;;5064655;28;20033;-87
2021/12/30 01:36:48;;;;;;;46.65;6.47;;;7.70;99.90;;;;;;5064456;28;20099;-86
2021/12/30 01:39:14;;;;;;;42.90;5.70;;;8.30;99.90;;;;;;5082082;28;20036;-87
2021/12/30 01:41:41;;;;;;;39.22;5.95;;;7.70;99.90;;;;;;5081191;28;20056;-86
2021/12/30 01:44:06;;;;;;;39.47;6.18;;;7.70;99.90;;;;;;5064764;28;20041;-86
2021/12/30 01:46:44;;;;;;;38.08;5.30;;;7.80;99.90;;;;;;5064135;28;20489;-86
2021/12/30 01:49:12;;;;;;;40.65;5.32;;;9.00;99.90;;;;;;5081496;28;20049;-86
2021/12/30 01:51:39;;;;;;;37.47;4.78;;;7.70;99.90;;;;;;5063859;28;20342;-86
2021/12/30 01:54:06;;;;;;;40.20;5.28;;;7.70;99.90;;;;;;5081273;28;20033;-86
2021/12/30 01:56:32;;;;;;;37.88;5.35;;;7.90;99.90;;;;;;5082202;28;20040;-86
2021/12/30 01:58:58;;;;;;;35.85;5.43;;;8.00;99.90;;;;;;5085664;28;20569;-86
2021/12/30 02:01:24;;;;;;;;;;;7.60;99.90;;;;;;5068857;28;20041;-86
2021/12/30 02:03:50;;;;;;;33.63;5.30;;;7.60;99.90;;;;;;5068316;28;19916;-86
2021/12/30 02:06:16;;;;;;;46.20;5.78;;;7.50;99.90;;;;;;5085458;28;20267;-86
2021/12/30 02:08:42;;;;;;;37.65;5.70;;;7.50;99.90;;;;;;5068200;28;20044;-86
2021/12/30 02:11:08;;;;;;;49.33;6.38;;;7.50;99.90;;;;;;5085526;28;20102;-86
2021/12/30 02:13:34;;;;;;;41.67;5.80;;;8.20;99.90;;;;;;5084545;28;20044;-86
2021/12/30 02:16:03;;;;;;;37.27;5.63;;;8.60;99.90;;;;;;5085400;28;20417;-87
2021/12/30 02:18:30;;;;;;;42.30;5.82;;;7.50;99.90;;;;;;5068316;28;20314;-86
2021/12/30 02:21:01;;;;;;;34.60;5.60;;;7.50;99.90;;;;;;5085234;28;20457;-86
2021/12/30 02:23:28;;;;;;;42.03;5.05;;;7.50;99.90;;;;;;5068140;28;20535;-86
2021/12/30 02:25:57;;;;;;;38.55;5.80;;;7.50;99.90;;;;;;5068092;28;20090;-86
2021/12/30 02:28:25;;;;;;;42.85;6.43;;;7.60;99.90;;;;;;5084807;28;20045;-86
2021/12/30 02:30:54;;;;;;;36.78;6.22;;;7.50;99.90;;;;;;5084380;28;20040;-86
2021/12/30 02:33:21;;;;;;;47.60;5.95;;;7.60;99.90;;;;;;5084731;28;20081;-86
2021/12/30 02:35:47;;;;;;;41.83;6.65;;;7.60;99.90;;;;;;5084396;28;20061;-86
2021/12/30 02:38:16;;;;;;;45.88;5.75;;;7.60;99.90;;;;;;5084904;28;20037;-86
2021/12/30 02:40:45;;;;;;;41.25;5.68;;;7.60;99.90;;;;;;5067212;28;20107;-86
2021/12/30 02:43:14;;;;;;;36.05;5.60;;;7.50;99.90;;;;;;5084229;28;20074;-86
2021/12/30 02:45:39;;;;;;;41.10;6.07;;;7.50;99.90;;;;;;5084040;28;20041;-86
2021/12/30 02:48:06;;;;;;;47.15;5.75;;;8.00;99.90;;;;;;5084511;28;20060;-86
2021/12/30 02:50:31;;;;;;;38.20;5.47;;;7.50;99.90;;;;;;5084352;28;20378;-86
2021/12/30 02:52:57;;;;;;;40.37;6.13;;;7.50;99.90;;;;;;5084166;28;20055;-86
2021/12/30 02:55:23;;;;;;;47.50;6.33;;;8.20;99.90;;;;;;5067408;28;20282;-85
2021/12/30 02:57:49;;;;;;;41.22;5.63;;;7.50;99.90;;;;;;5067330;28;20809;-86
2021/12/30 03:00:15;;;;;;;43.17;6.05;;;7.50;99.90;;;;;;5084403;28;20492;-86
2021/12/30 03:02:41;;;;;;;42.97;6.28;;;7.60;99.90;;;;;;5050237;28;20045;-86
2021/12/30 03:05:08;;;;;;;37.90;7.70;;;7.60;99.90;;;;;;5084398;28;20318;-86
2021/12/30 03:07:34;;;;;;;47.53;6.63;;;7.60;99.90;;;;;;5084288;28;20037;-86
2021/12/30 03:10:03;;;;;;;;;;;7.70;99.90;;;;;;5066946;28;20107;-86
2021/12/30 03:12:29;;;;;;;55.30;8.30;;;8.80;99.90;;;;;;5050438;28;19916;-86
2021/12/30 03:14:56;;;;;;;41.15;7.53;;;7.70;99.90;;;;;;5067058;28;20043;-86
2021/12/30 03:17:22;;;;;;;49.15;7.68;;;7.70;99.90;;;;;;5083383;28;20115;-86
2021/12/30 03:19:48;;;;;;;54.38;9.75;;;7.80;99.90;;;;;;5083782;28;20044;-86
2021/12/30 03:22:14;;;;;;;50.13;10.07;;;7.80;99.90;;;;;;5066943;28;20041;-86
2021/12/30 03:24:39;;;;;;;59.70;10.47;;;7.80;99.90;;;;;;5032947;28;20558;-86
2021/12/30 03:27:06;;;;;;;52.70;10.27;;;7.90;99.90;;;;;;5033742;28;20276;-86
2021/12/30 03:29:32;;;;;;;;;;;8.00;99.90;;;;;;5084130;28;20520;-86
2021/12/30 03:31:58;;;;;;;48.83;9.57;;;8.10;99.90;;;;;;5066539;28;19921;-86
2021/12/30 03:34:24;;;;;;;41.53;8.23;;;8.10;99.90;;;;;;5066374;28;20037;-86
2021/12/30 03:36:49;;;;;;;50.80;9.38;;;8.10;99.90;;;;;;5083192;28;20098;-86
2021/12/30 03:39:15;;;;;;;40.30;9.18;;;8.20;99.90;;;;;;5083206;28;20045;-86
2021/12/30 03:41:41;;;;;;;42.92;9.77;;;8.10;99.90;;;;;;5049330;28;20123;-85
2021/12/30 03:44:07;;;;;;;53.30;10.23;;;8.30;99.90;;;;;;5066850;28;20485;-86
2021/12/30 03:46:33;;;;;;;47.58;10.45;;;8.10;99.90;;;;;;5083677;28;20393;-86
2021/12/30 03:49:00;;;;;;;64.85;11.82;;;8.20;99.90;;;;;;5050118;28;20074;-86
2021/12/30 03:51:26;;;;;;;50.33;11.00;;;8.20;99.90;;;;;;5083726;28;20116;-86
2021/12/30 03:53:54;;;;;;;55.72;11.38;;;8.30;99.90;;;;;;5083351;28;20041;-86
2021/12/30 03:56:23;;;;;;;47.50;10.20;;;8.30;99.90;;;;;;5033225;28;20037;-86
2021/12/30 03:58:49;;;;;;;47.72;11.43;;;8.30;99.90;;;;;;5083014;28;20048;-86
2021/12/30 04:01:19;;;;;;;56.67;11.73;;;8.40;99.90;;;;;;5050090;28;20147;-86
2021/12/30 04:03:45;;;;;;;50.90;10.13;;;8.40;99.90;;;;;;5033021;28;20041;-86
2021/12/30 04:06:11;;;;;;;48.38;10.38;;;8.40;99.90;;;;;;5066120;28;20119;-86
2021/12/30 04:08:38;;;;;;;49.83;9.75;;;8.40;99.90;;;;;;5082836;28;20047;-86
2021/12/30 04:11:03;;;;;;;53.75;9.85;;;8.40;99.90;;;;;;5066492;28;20136;-86
2021/12/30 04:13:30;;;;;;;53.33;10.38;;;8.50;99.90;;;;;;5066120;28;20461;-86
2021/12/30 04:15:56;;;;;;;49.22;10.27;;;8.50;99.90;;;;;;5032493;28;20033;-86
2021/12/30 04:18:22;;;;;;;58.83;11.15;;;8.50;99.90;;;;;;5048694;28;20405;-86
2021/12/30 04:20:48;;;;;;;56.90;9.82;;;8.40;99.90;;;;;;5031974;28;20690;-86
2021/12/30 04:23:15;;;;;;;47.90;9.07;;;8.40;99.90;;;;;;5065895;28;20048;-86
2021/12/30 04:25:41;;;;;;;54.65;10.05;;;8.40;99.90;;;;;;5065221;28;20044;-86
2021/12/30 04:28:07;;;;;;;54.95;10.25;;;8.70;99.90;;;;;;5032919;28;20045;-86
2021/12/30 04:30:33;;;;;;;50.63;10.00;;;8.50;99.90;;;;;;5049203;28;20083;-86
2021/12/30 04:32:59;;;;;;;58.38;9.70;;;8.50;99.90;;;;;;5082094;28;20584;-86
2021/12/30 04:35:25;;;;;;;54.47;10.02;;;8.60;99.90;;;;;;5031966;28;20037;-85
2021/12/30 04:37:51;;;;;;;58.35;10.48;;;8.60;99.90;;;;;;5031869;28;20098;-86
2021/12/30 04:40:16;;;;;;;53.13;9.85;;;8.90;99.90;;;;;;5065904;28;20048;-86
2021/12/30 04:42:43;;;;;;;58.10;9.85;;;8.70;99.90;;;;;;5082034;28;20041;-86
2021/12/30 04:45:10;;;;;;;57.08;10.63;;;8.80;99.90;;;;;;5082075;28;20041;-86
2021/12/30 04:47:38;;;;;;;52.78;10.57;;;8.90;99.90;;;;;;5048414;28;20413;-86
2021/12/30 04:50:06;;;;;;;52.88;9.95;;;8.90;99.90;;;;;;5065038;28;20037;-86
2021/12/30 04:52:32;;;;;;;56.88;10.05;;;8.90;99.90;;;;;;5065060;28;20354;-86
2021/12/30 04:54:58;;;;;;;60.13;10.77;;;8.90;99.90;;;;;;5081325;28;20093;-86
2021/12/30 04:57:24;;;;;;;55.97;12.52;;;8.90;99.90;;;;;;5048762;28;20283;-86
2021/12/30 04:59:50;;;;;;;58.13;12.32;;;9.00;99.90;;;;;;5081971;28;20037;-86
2021/12/30 05:02:16;;;;;;;67.65;13.88;;;9.00;99.90;;;;;;5032140;28;20044;-86
2021/12/30 05:04:42;;;;;;;68.10;12.70;;;9.20;99.90;;;;;;5031797;28;20535;-86
2021/12/30 05:07:08;;;;;;;61.50;13.35;;;9.30;99.90;;;;;;5031748;28;20076;-86
2021/12/30 05:09:34;;;;;;;78.45;14.77;;;9.30;99.90;;;;;;5031701;28;20080;-86
2021/12/30 05:12:00;;;;;;;66.03;14.15;;;9.40;99.90;;;;;;5065074;28;20072;-86
2021/12/30 05:14:26;;;;;;;79.25;16.42;;;9.50;99.90;;;;;;5014997;28;20106;-86
2021/12/30 05:16:52;;;;;;;76.72;15.98;;;9.50;99.90;;;;;;5048015;28;20489;-86
2021/12/30 05:19:19;;;;;;;63.67;14.82;;;9.60;99.90;;;;;;5047729;28;20057;-86
2021/12/30 05:21:44;;;;;;;;;;;9.70;99.90;;;;;;5081863;28;20045;-86
2021/12/30 05:24:10;;;;;;;62.83;14.30;;;9.90;99.90;;;;;;5081699;28;20028;-86
2021/12/30 05:26:36;;;;;;;68.78;14.35;;;9.80;99.90;;;;;;5031341;28;20094;-87
2021/12/30 05:29:03;;;;;;;73.20;17.83;;;10.00;99.90;;;;;;5064609;28;20037;-86
2021/12/30 05:31:29;;;;;;;74.28;17.38;;;10.00;99.90;;;;;;5063630;28;20045;-86
2021/12/30 05:33:55;;;;;;;78.93;18.95;;;10.00;99.90;;;;;;5031080;28;20078;-86
2021/12/30 05:36:21;;;;;;;78.00;17.85;;;10.10;99.90;;;;;;5081666;28;20481;-86
2021/12/30 05:38:47;;;;;;;75.43;17.92;;;10.00;99.90;;;;;;5081219;28;20052;-86
2021/12/30 05:41:12;;;;;;;66.68;16.63;;;10.10;99.90;;;;;;5081859;28;20489;-87
2021/12/30 05:43:39;;;;;;;61.25;15.35;;;10.10;99.90;;;;;;5081808;28;20048;-87
2021/12/30 05:46:05;;;;;;;51.78;14.52;;;10.10;99.90;;;;;;5047411;28;20051;-86
2021/12/30 05:48:31;;;;;;;63.58;15.32;;;10.20;99.90;;;;;;5047884;28;20485;-86
2021/12/30 05:50:59;;;;;;;61.80;15.98;;;10.30;99.90;;;;;;5014367;28;20045;-86
2021/12/30 05:53:30;;;;;;;63.75;14.20;;;10.20;99.90;;;;;;5081282;28;20037;-86
2021/12/30 05:55:56;;;;;;;48.78;13.45;;;10.20;99.90;;;;;;5047904;28;20033;-87
2021/12/30 05:58:22;;;;;;;;;;;10.20;99.90;;;;;;5065096;28;20350;-85
2021/12/30 06:00:49;;;;;;;39.92;11.40;;;10.20;99.90;;;;;;5031272;28;19920;-85
2021/12/30 06:03:19;;;;;;;35.75;12.45;;;10.20;99.90;;;;;;5064454;28;20080;-86
2021/12/30 06:05:49;;;;;;;37.20;11.45;;;10.20;99.90;;;;;;5030759;28;20071;-87
2021/12/30 06:08:16;;;;;;;35.28;11.00;;;10.30;99.90;;;;;;5047573;28;20043;-87
2021/12/30 06:10:43;;;;;;;32.83;10.93;;;10.30;99.90;;;;;;5047498;28;20489;-86
2021/12/30 06:13:09;;;;;;;31.42;10.60;;;10.30;99.90;;;;;;5047211;28;20068;-85
2021/12/30 06:15:36;;;;;;;26.95;10.52;;;10.30;99.90;;;;;;5064208;28;20033;-86
2021/12/30 06:18:01;;;;;;;36.35;11.10;;;10.40;99.90;;;;;;5080426;28;20057;-85
2021/12/30 06:20:29;;;;;;;38.55;12.05;;;10.40;99.90;;;;;;5047283;28;20055;-84
2021/12/30 06:22:55;;;;;;;33.97;11.50;;;10.60;99.90;;;;;;5030635;28;20041;-84
2021/12/30 06:25:21;;;;;;;36.25;11.43;;;10.60;99.90;;;;;;5080906;28;20420;-85
2021/12/30 06:27:47;;;;;;;37.17;11.25;;;10.90;99.90;;;;;;5081331;28;20150;-85
2021/12/30 06:30:13;;;;;;;38.38;11.82;;;10.40;99.90;;;;;;5030462;28;20037;-85
2021/12/30 06:32:39;;;;;;;50.83;13.25;;;10.50;99.90;;;;;;5031109;28;20507;-84
2021/12/30 06:35:09;;;;;;;48.88;12.82;;;10.60;99.90;;;;;;5063493;28;20037;-85
2021/12/30 06:37:36;;;;;;;48.65;13.65;;;10.50;99.90;;;;;;5031446;28;20507;-85
2021/12/30 06:40:06;;;;;;;50.03;14.35;;;10.50;99.90;;;;;;5046693;28;20045;-85
2021/12/30 06:42:32;;;;;;;59.10;15.20;;;10.50;99.90;;;;;;5048529;28;20047;-86
2021/12/30 06:44:57;;;;;;;52.03;13.68;;;10.60;99.90;;;;;;5034133;28;20033;-86
2021/12/30 06:47:24;;;;;;;51.30;14.57;;;10.50;99.90;;;;;;5034634;28;20056;-86
2021/12/30 06:49:50;;;;;;;55.30;14.02;;;10.60;99.90;;;;;;5067792;28;20037;-85
2021/12/30 06:52:16;;;;;;;71.43;15.55;;;10.60;99.90;;;;;;5050588;28;20094;-85
2021/12/30 06:54:42;;;;;;;70.22;15.57;;;10.60;99.90;;;;;;5050760;28;20036;-85
2021/12/30 06:57:12;;;;;;;71.80;14.52;;;10.60;99.90;;;;;;5050775;28;20037;-86
2021/12/30 06:59:39;;;;;;;54.88;14.57;;;10.60;99.90;;;;;;5034783;28;20033;-85
2021/12/30 07:02:06;;;;;;;48.03;12.25;;;10.60;99.90;;;;;;5033703;28;20103;-85
2021/12/30 07:04:32;;;;;;;44.30;10.85;;;10.60;99.90;;;;;;5050386;28;20037;-84
2021/12/30 07:06:58;;;;;;;44.22;11.63;;;10.70;99.90;;;;;;5017548;28;20156;-85
2021/12/30 07:09:23;;;;;;;39.60;11.68;;;10.70;99.90;;;;;;5084518;28;20079;-85
2021/12/30 07:11:50;;;;;;;53.22;12.77;;;10.70;99.90;;;;;;5050488;28;20073;-84
2021/12/30 07:14:17;;;;;;;40.13;10.65;;;10.70;99.90;;;;;;5050054;28;20102;-84
2021/12/30 07:16:43;;;;;;;41.63;11.40;;;10.70;99.90;;;;;;5050451;28;20037;-85
2021/12/30 07:19:09;;;;;;;39.65;10.82;;;10.80;99.90;;;;;;5083666;28;20063;-84
2021/12/30 07:21:35;;;;;;;31.83;8.90;;;10.80;99.90;;;;;;5050614;28;20041;-84
2021/12/30 07:24:01;;;;;;;30.50;9.60;;;10.80;99.90;;;;;;5066798;28;20040;-84
2021/12/30 07:26:26;;;;;;;29.95;8.63;;;10.80;99.90;;;;;;5066701;28;20128;-84
2021/12/30 07:28:52;;;;;;;34.95;9.40;;;10.90;99.90;;;;;;5084031;28;20091;-85
2021/12/30 07:31:18;;;;;;;30.60;9.23;;;10.80;99.90;;;;;;5083124;28;20076;-84
2021/12/30 07:33:44;;;;;;;32.90;9.33;;;10.80;99.90;;;;;;5066854;28;20047;-84
2021/12/30 07:36:09;;;;;;;25.83;8.48;;;10.80;99.90;;;;;;5083082;28;20306;-84
2021/12/30 07:38:35;;;;;;;23.38;8.15;;;10.80;99.90;;;;;;5083939;28;20045;-84
2021/12/30 07:41:04;;;;;;;25.30;8.50;;;10.90;99.90;;;;;;5083275;28;20045;-84
2021/12/30 07:43:31;;;;;;;23.25;7.88;;;10.90;99.90;;;;;;5066605;28;20646;-84
2021/12/30 07:45:56;;;;;;;25.27;8.90;;;11.00;99.90;;;;;;5083447;28;20123;-84
2021/12/30 07:48:23;;;;;;;21.88;7.75;;;11.00;99.90;;;;;;5083832;28;20152;-84
2021/12/30 07:50:50;;;;;;;19.63;6.65;;;11.10;99.90;;;;;;5083113;28;20076;-84
2021/12/30 07:53:16;;;;;;;19.75;6.95;;;11.00;99.90;;;;;;5065692;28;20429;-84
2021/12/30 07:55:41;;;;;;;17.23;6.82;;;11.10;99.90;;;;;;5082666;28;20064;-84
2021/12/30 07:58:07;;;;;;;13.32;6.07;;;11.10;99.90;;;;;;5049290;28;20037;-85
2021/12/30 08:00:33;;;;;;;12.63;5.35;;;11.10;99.90;;;;;;5083450;28;20516;-84
2021/12/30 08:02:59;;;;;;;9.02;4.78;;;11.10;99.90;;;;;;5082934;28;20045;-84
2021/12/30 08:05:26;;;;;;;9.77;5.18;;;11.20;99.90;;;;;;5066320;28;20131;-84
2021/12/30 08:07:52;;;;;;;11.02;4.43;;;11.20;99.90;;;;;;5083460;28;20056;-84
2021/12/30 08:10:18;;;;;;;9.75;4.72;;;11.20;99.90;;;;;;5066340;28;20400;-84
2021/12/30 08:12:45;;;;;;;8.43;4.78;;;11.20;99.90;;;;;;5066178;28;20041;-84
2021/12/30 08:15:13;;;;;;;13.48;5.20;;;11.20;99.90;;;;;;5082665;28;20048;-84
2021/12/30 08:17:40;;;;;;;9.88;4.72;;;11.10;99.90;;;;;;5065320;28;20323;-84
2021/12/30 08:20:07;;;;;;;9.40;4.57;;;11.10;99.90;;;;;;5082336;28;20111;-84
2021/12/30 08:22:34;;;;;;;8.18;4.30;;;11.10;99.90;;;;;;5049542;28;20095;-83
2021/12/30 08:25:00;;;;;;;;;;;11.10;99.90;;;;;;5082995;28;20072;-83
2021/12/30 08:27:26;;;;;;;9.18;3.63;;;11.20;99.90;;;;;;5082993;28;19960;-84
2021/12/30 08:29:52;;;;;;;;;;;11.10;99.90;;;;;;5083464;28;20103;-84
2021/12/30 08:32:18;;;;;;;6.82;3.58;;;11.20;99.90;;;;;;5082381;28;20412;-85
2021/12/30 08:34:45;;;;;;;5.60;3.08;;;11.30;99.90;;;;;;5065865;28;20033;-85
2021/12/30 08:37:12;;;;;;;6.45;3.67;;;11.20;99.90;;;;;;5082428;28;20033;-85
2021/12/30 08:39:40;;;;;;;7.45;4.07;;;11.20;99.90;;;;;;5065475;28;20041;-85
2021/12/30 08:42:20;;;;;;;7.93;4.18;;;11.30;99.90;;;;;;5048869;28;20378;-85
2021/12/30 08:44:46;;;;;;;11.48;5.63;;;11.40;99.90;;;;;;5082364;28;20040;-86
2021/12/30 08:47:13;;;;;;;13.15;6.45;;;11.30;99.90;;;;;;5082139;28;20041;-86
2021/12/30 08:49:41;;;;;;;16.27;6.63;;;11.30;99.90;;;;;;5048848;28;20578;-85
2021/12/30 08:52:08;;;;;;;13.90;7.03;;;11.40;99.90;;;;;;5048698;28;20036;-85
2021/12/30 08:54:35;;;;;;;14.25;7.30;;;11.40;99.90;;;;;;5065210;28;20039;-85
2021/12/30 08:57:01;;;;;;;;;;;11.50;99.90;;;;;;5065656;28;20096;-85
2021/12/30 08:59:26;;;;;;;12.38;6.80;;;11.40;99.90;;;;;;5065503;28;20389;-85
2021/12/30 09:01:52;;;;;;;16.50;6.90;;;11.40;99.90;;;;;;5065780;28;20072;-85
2021/12/30 09:04:18;;;;;;;17.17;7.38;;;11.40;99.90;;;;;;5081606;28;20284;-85
2021/12/30 09:06:43;;;;;;;17.05;7.80;;;11.40;99.90;;;;;;5082058;28;20041;-84
2021/12/30 09:09:09;;;;;;;17.65;7.82;;;11.30;99.90;;;;;;5065258;28;20421;-85
2021/12/30 09:11:35;;;;;;;15.45;6.75;;;11.40;99.90;;;;;;5082368;28;20167;-84
2021/12/30 09:14:00;;;;;;;18.83;6.78;;;11.50;99.90;;;;;;5065647;28;20565;-85
2021/12/30 09:16:26;;;;;;;17.35;7.03;;;11.40;99.90;;;;;;5082392;28;20529;-86
2021/12/30 09:18:52;;;;;;;15.95;6.55;;;11.50;99.90;;;;;;5065311;28;20045;-84
2021/12/30 09:21:18;;;;;;;17.80;6.95;;;11.60;99.90;;;;;;5082293;28;20416;-84
2021/12/30 09:23:43;;;;;;;15.48;7.32;;;11.50;99.90;;;;;;5066224;28;20049;-85
2021/12/30 09:26:09;;;;;;;18.95;6.45;;;11.50;99.90;;;;;;5082171;28;20094;-86
2021/12/30 09:28:35;;;;;;;11.10;5.35;;;11.50;99.90;;;;;;5048648;28;20107;-84
2021/12/30 09:31:01;;;;;;;13.57;5.30;;;11.50;99.90;;;;;;5065562;28;20523;-85
2021/12/30 09:33:27;;;;;;;10.00;5.30;;;11.60;99.90;;;;;;5082049;28;20115;-85
2021/12/30 09:35:52;;;;;;;15.68;4.57;;;11.50;99.90;;;;;;5082260;28;20041;-84
2021/12/30 09:38:19;;;;;;;15.43;5.10;;;11.50;99.90;;;;;;5048614;28;20045;-84
2021/12/30 09:40:45;;;;;;;13.20;5.53;;;11.60;99.90;;;;;;5081941;28;20501;-84
2021/12/30 09:43:12;;;;;;;;;;;11.60;99.90;;;;;;5082196;28;20056;-85
2021/12/30 09:45:40;;;;;;;14.65;5.55;;;11.60;99.90;;;;;;5048497;28;19935;-84
2021/12/30 09:48:10;;;;;;;17.40;6.47;;;11.60;99.90;;;;;;5081887;28;20045;-84
2021/12/30 09:50:45;;;;;;;19.17;7.20;;;11.70;99.90;;;;;;5081823;28;20045;-85
2021/12/30 09:53:11;;;;;;;18.45;6.90;;;11.60;99.90;;;;;;5064634;28;20148;-84
2021/12/30 09:55:37;;;;;;;;;;;11.60;99.90;;;;;;5082755;28;20037;-84
2021/12/30 09:58:05;;;;;;;18.85;6.78;;;11.60;99.90;;;;;;5048666;28;20344;-85
2021/12/30 10:00:31;;;;;;;21.50;7.20;;;11.60;99.90;;;;;;5082286;28;20574;-83
2021/12/30 10:02:58;;;;;;;19.52;6.80;;;11.60;99.90;;;;;;5082220;28;20064;-85
2021/12/30 10:05:29;;;;;;;19.35;7.80;;;11.60;99.90;;;;;;5065051;28;20443;-85
2021/12/30 10:08:14;;;;;;;24.95;8.57;;;11.60;99.90;;;;;;5065094;28;20171;-84
2021/12/30 10:10:42;;;;;;;20.92;7.43;;;11.60;99.90;;;;;;5081920;28;20037;-85
2021/12/30 10:13:20;;;;;;;19.92;7.88;;;11.70;99.90;;;;;;5081870;28;20482;-85
2021/12/30 10:15:49;;;;;;;24.67;7.40;;;11.60;99.90;;;;;;5064963;28;20044;-85
2021/12/30 10:18:15;;;;;;;19.20;7.15;;;11.70;99.90;;;;;;5083886;28;20061;-84
2021/12/30 10:20:42;;;;;;;22.08;7.72;;;11.70;99.90;;;;;;5068952;28;20045;-85
2021/12/30 10:23:12;;;;;;;27.38;7.60;;;11.60;99.90;;;;;;5052353;28;20052;-86
2021/12/30 10:25:42;;;;;;;19.40;8.05;;;11.60;99.90;;;;;;5068673;28;20174;-86
2021/12/30 10:28:36;;;;;;;25.17;7.80;;;11.70;99.90;;;;;;5085233;28;20523;-83
2021/12/30 10:31:11;;;;;;;26.15;8.52;;;11.70;99.90;;;;;;5085896;28;20037;-84
2021/12/30 10:33:45;;;;;;;22.48;8.23;;;11.80;99.90;;;;;;5068566;28;20045;-84
2021/12/30 10:36:29;;;;;;;24.52;8.55;;;11.70;99.90;;;;;;5052728;28;20045;-84
2021/12/30 10:39:13;;;;;;;22.88;7.28;;;11.70;99.90;;;;;;5086332;28;20060;-85
2021/12/30 10:41:39;;;;;;;20.42;7.20;;;11.60;99.90;;;;;;5051771;28;20110;-83
2021/12/30 10:44:05;;;;;;;25.65;6.90;;;11.60;99.90;;;;;;5068731;28;20119;-84
2021/12/30 10:46:32;;;;;;;24.60;6.82;;;11.60;99.90;;;;;;5068466;28;20045;-84
2021/12/30 10:48:57;;;;;;;;;;;11.60;99.90;;;;;;5035776;28;20045;-83
2021/12/30 10:51:37;;;;;;;24.33;7.07;;;11.70;99.90;;;;;;5084909;28;20385;-85
2021/12/30 10:54:25;;;;;;;28.98;7.68;;;11.70;99.90;;;;;;5085254;28;20045;-84
2021/12/30 10:56:59;;;;;;;34.30;8.05;;;11.60;99.90;;;;;;5085077;28;20083;-85
2021/12/30 10:59:28;;;;;;;27.83;7.60;;;11.60;99.90;;;;;;5084751;28;20044;-85
2021/12/30 11:02:01;;;;;;;26.05;7.47;;;11.60;99.90;;;;;;5086501;28;20532;-85
2021/12/30 11:04:48;;;;;;;26.23;6.93;;;11.60;99.90;;;;;;5068483;28;20521;-85
2021/12/30 11:07:17;;;;;;;29.23;7.93;;;11.60;99.90;;;;;;5085254;28;20041;-85
2021/12/30 11:09:55;;;;;;;32.50;8.30;;;11.70;99.90;;;;;;5069103;28;20485;-85
2021/12/30 11:12:30;;;;;;;31.40;7.22;;;11.60;99.90;;;;;;5084472;28;20043;-86
2021/12/30 11:14:58;;;;;;;29.15;7.78;;;11.70;99.90;;;;;;5085492;28;20041;-84
2021/12/30 11:17:33;;;;;;;31.98;8.73;;;11.70;99.90;;;;;;5084546;28;20041;-85
2021/12/30 11:20:08;;;;;;;35.00;8.23;;;11.60;99.90;;;;;;5068867;28;20135;-84
2021/12/30 11:22:35;;;;;;;30.38;7.85;;;11.60;99.90;;;;;;5083880;28;20041;-85
2021/12/30 11:25:04;;;;;;;38.72;7.95;;;11.60;99.90;;;;;;5067942;28;20056;-84
2021/12/30 11:27:31;;;;;;;38.92;8.43;;;11.60;99.90;;;;;;5084744;28;20500;-84
2021/12/30 11:30:01;;;;;;;34.42;6.97;;;11.60;99.90;;;;;;5066921;28;20554;-85
2021/12/30 11:32:30;;;;;;;42.63;8.85;;;11.70;99.90;;;;;;5084577;28;20049;-85
2021/12/30 11:34:57;;;;;;;27.42;6.50;;;11.70;99.90;;;;;;5085425;28;20121;-84
2021/12/30 11:37:24;;;;;;;40.22;8.27;;;11.80;99.90;;;;;;5067021;28;20036;-84
2021/12/30 11:39:53;;;;;;;46.15;9.18;;;11.70;99.90;;;;;;5085120;28;20107;-85
2021/12/30 11:42:39;;;;;;;41.85;9.20;;;11.60;99.90;;;;;;5084139;28;20052;-85
2021/12/30 11:45:28;;;;;;;40.85;7.80;;;11.70;99.90;;;;;;5084174;28;20029;-85
2021/12/30 11:47:59;;;;;;;39.03;8.82;;;11.70;99.90;;;;;;5068034;28;20033;-85
2021/12/30 11:50:37;;;;;;;37.03;8.65;;;11.80;99.90;;;;;;5084086;28;20037;-86
2021/12/30 11:53:12;;;;;;;28.48;7.43;;;11.80;99.90;;;;;;5084631;28;20041;-85
2021/12/30 11:55:51;;;;;;;38.60;7.80;;;11.80;99.90;;;;;;5084112;28;20037;-85
2021/12/30 12:01:04;;;;;;;30.70;6.57;;;11.80;99.90;;;;;;5084924;28;20055;-86
2021/12/30 12:03:40;;;;;;;30.05;5.97;;;11.80;99.90;;;;;;5084262;28;20041;-86
2021/12/30 12:06:26;;;;;;;30.85;6.40;;;11.90;99.90;;;;;;5084551;28;20080;-85
2021/12/30 12:08:52;;;;;;;32.63;7.43;;;11.90;99.90;;;;;;5083907;28;20137;-85
2021/12/30 12:11:21;;;;;;;36.40;5.78;;;11.80;99.90;;;;;;5083940;28;20128;-85
2021/12/30 12:13:48;;;;;;;28.95;6.88;;;11.90;99.90;;;;;;5083999;28;20452;-85
2021/12/30 12:16:39;;;;;;;36.22;6.68;;;11.90;99.90;;;;;;5067125;28;20090;-85
2021/12/30 12:19:09;;;;;;;39.13;6.72;;;11.90;99.90;;;;;;5040030;28;20053;-84
2021/12/30 12:21:44;;;;;;;31.55;6.53;;;11.90;99.90;;;;;;5083146;28;20044;-84
2021/12/30 12:24:21;;;;;;;30.52;5.63;;;11.90;99.90;;;;;;5083900;28;20447;-85
2021/12/30 12:26:54;;;;;;;37.75;6.93;;;11.90;99.90;;;;;;5066127;28;20044;-84
2021/12/30 12:29:29;;;;;;;36.97;6.88;;;11.90;99.90;;;;;;5082995;28;20047;-84
2021/12/30 12:32:03;;;;;;;32.90;5.40;;;11.80;99.90;;;;;;5083379;28;20048;-84
2021/12/30 12:34:46;;;;;;;27.33;5.68;;;11.80;99.90;;;;;;5065636;28;20147;-85
2021/12/30 12:37:41;;;;;;;31.50;5.63;;;11.80;99.90;;;;;;5083645;28;20044;-85
2021/12/30 12:40:20;;;;;;;30.00;6.10;;;11.80;99.90;;;;;;5016312;28;20057;-85
2021/12/30 12:42:50;;;;;;;35.13;6.32;;;11.70;99.90;;;;;;5083422;28;20100;-86
2021/12/30 12:45:37;;;;;;;31.90;6.20;;;11.70;99.90;;;;;;5083429;28;20041;-84
2021/12/30 12:48:36;;;;;;;32.22;5.95;;;11.80;99.90;;;;;;5083038;28;20032;-85
2021/12/30 12:51:14;;;;;;;30.63;5.55;;;11.80;99.90;;;;;;5034529;28;20138;-85